CAL712 VTSP-WMKP
Flight info
| Callsign | CAL712 |
|---|---|
| Flight time | 0h 47m |
| Altitude | 24000 |
| Route | REBED NUTGU VPL KAPKO OMBOD |
| Aircraft | B738/L-V/N |
Departure
| Time | 2026-05-08 03:28 |
|---|---|
| Airport | Phuket International Airport (VTSP) |
Arrival
| Time | 2026-05-08 04:15 |
|---|---|
| Airport | Penang International Airport (WMKP) |
| Time | Latitude | Longitude | Altitude | Speed | Heading |
|---|---|---|---|---|---|
| 2026-05-08 03:16 | 8.10843 | 98.30270 | 28 ft | 0 kts | 283° |
| 2026-05-08 03:21 | 8.10843 | 98.30267 | 28 ft | 0 kts | 284° |
| 2026-05-08 03:21 | 8.10840 | 98.30280 | 29 ft | 2 kts | 284° |
| 2026-05-08 03:21 | 8.10835 | 98.30294 | 29 ft | 2 kts | 298° |
| 2026-05-08 03:21 | 8.10827 | 98.30307 | 30 ft | 2 kts | 308° |
| 2026-05-08 03:22 | 8.10817 | 98.30318 | 30 ft | 2 kts | 318° |
| 2026-05-08 03:22 | 8.10805 | 98.30327 | 31 ft | 2 kts | 328° |
| 2026-05-08 03:22 | 8.10792 | 98.30334 | 31 ft | 2 kts | 338° |
| 2026-05-08 03:22 | 8.10778 | 98.30338 | 31 ft | 2 kts | 348° |
| 2026-05-08 03:23 | 8.10763 | 98.30341 | 31 ft | 2 kts | 359° |
| 2026-05-08 03:23 | 8.10748 | 98.30340 | 31 ft | 2 kts | 8° |
| 2026-05-08 03:23 | 8.10740 | 98.30338 | 31 ft | 1 kts | 14° |
| 2026-05-08 03:23 | 8.10736 | 98.30337 | 31 ft | 0 kts | 15° |
| 2026-05-08 03:26 | 8.10763 | 98.30344 | 31 ft | 8 kts | 14° |
| 2026-05-08 03:26 | 8.10825 | 98.30360 | 31 ft | 9 kts | 15° |
| 2026-05-08 03:26 | 8.10895 | 98.30378 | 31 ft | 11 kts | 14° |
| 2026-05-08 03:27 | 8.10982 | 98.30398 | 32 ft | 13 kts | 2° |
| 2026-05-08 03:27 | 8.11065 | 98.30357 | 30 ft | 14 kts | 338° |
| 2026-05-08 03:27 | 8.11169 | 98.30355 | 28 ft | 15 kts | 36° |
| 2026-05-08 03:27 | 8.11206 | 98.30448 | 30 ft | 17 kts | 83° |
| 2026-05-08 03:28 | 8.11229 | 98.30785 | 36 ft | 70 kts | 85° |
| 2026-05-08 03:28 | 8.11302 | 98.31541 | 59 ft | 145 kts | 86° |
| 2026-05-08 03:28 | 8.11407 | 98.32654 | 585 ft | 170 kts | 87° |
| 2026-05-08 03:28 | 8.11536 | 98.33929 | 918 ft | 207 kts | 87° |
| 2026-05-08 03:29 | 8.11681 | 98.35529 | 1038 ft | 246 kts | 86° |
| 2026-05-08 03:29 | 8.11848 | 98.37335 | 1322 ft | 272 kts | 86° |
| 2026-05-08 03:29 | 8.12031 | 98.39285 | 1634 ft | 279 kts | 86° |
| 2026-05-08 03:29 | 8.12211 | 98.41129 | 2148 ft | 252 kts | 86° |
| 2026-05-08 03:30 | 8.12624 | 98.44250 | 3986 ft | 234 kts | 86° |
| 2026-05-08 03:30 | 8.12875 | 98.47762 | 4952 ft | 259 kts | 87° |
| 2026-05-08 03:31 | 8.13192 | 98.51516 | 6039 ft | 284 kts | 85° |
| 2026-05-08 03:31 | 8.13565 | 98.55537 | 7424 ft | 294 kts | 85° |
| 2026-05-08 03:32 | 8.13600 | 98.57581 | 8085 ft | 297 kts | 102° |
| 2026-05-08 03:32 | 8.12672 | 98.59419 | 8748 ft | 297 kts | 135° |
| 2026-05-08 03:32 | 8.11066 | 98.60680 | 9303 ft | 301 kts | 152° |
| 2026-05-08 03:32 | 8.09096 | 98.61385 | 9294 ft | 297 kts | 176° |
| 2026-05-08 03:33 | 8.07040 | 98.61455 | 9812 ft | 293 kts | 179° |
| 2026-05-08 03:33 | 8.05027 | 98.61536 | 10515 ft | 295 kts | 180° |
| 2026-05-08 03:33 | 8.02965 | 98.61600 | 10942 ft | 306 kts | 180° |
| 2026-05-08 03:33 | 8.00767 | 98.61668 | 11155 ft | 323 kts | 180° |
| 2026-05-08 03:34 | 7.98503 | 98.61746 | 11619 ft | 329 kts | 180° |
| 2026-05-08 03:34 | 7.96211 | 98.61825 | 12122 ft | 333 kts | 179° |
| 2026-05-08 03:34 | 7.93889 | 98.61907 | 12666 ft | 335 kts | 179° |
| 2026-05-08 03:34 | 7.91554 | 98.61991 | 13200 ft | 337 kts | 180° |
| 2026-05-08 03:35 | 7.89209 | 98.62075 | 13692 ft | 340 kts | 180° |
| 2026-05-08 03:35 | 7.86862 | 98.62159 | 14187 ft | 342 kts | 180° |
| 2026-05-08 03:35 | 7.84476 | 98.62244 | 14679 ft | 343 kts | 180° |
| 2026-05-08 03:35 | 7.82100 | 98.62330 | 15160 ft | 345 kts | 180° |
| 2026-05-08 03:36 | 7.79706 | 98.62416 | 15633 ft | 347 kts | 180° |
| 2026-05-08 03:36 | 7.77294 | 98.62502 | 16086 ft | 349 kts | 180° |
| 2026-05-08 03:36 | 7.74868 | 98.62742 | 16510 ft | 353 kts | 169° |
| 2026-05-08 03:36 | 7.72540 | 98.63506 | 16934 ft | 356 kts | 157° |
| 2026-05-08 03:37 | 7.70361 | 98.64726 | 17346 ft | 359 kts | 148° |
| 2026-05-08 03:37 | 7.68357 | 98.66214 | 17738 ft | 362 kts | 143° |
| 2026-05-08 03:37 | 7.66373 | 98.67803 | 18129 ft | 364 kts | 143° |
| 2026-05-08 03:37 | 7.64420 | 98.69388 | 18499 ft | 366 kts | 142° |
| 2026-05-08 03:38 | 7.62439 | 98.71004 | 18876 ft | 367 kts | 142° |
| 2026-05-08 03:38 | 7.60447 | 98.72635 | 19234 ft | 368 kts | 142° |
| 2026-05-08 03:38 | 7.58470 | 98.74257 | 19578 ft | 370 kts | 142° |
| 2026-05-08 03:38 | 7.56453 | 98.75913 | 19926 ft | 371 kts | 142° |
| 2026-05-08 03:39 | 7.54467 | 98.77544 | 20251 ft | 373 kts | 142° |
| 2026-05-08 03:39 | 7.52464 | 98.79190 | 20569 ft | 374 kts | 142° |
| 2026-05-08 03:39 | 7.50425 | 98.80866 | 20886 ft | 375 kts | 142° |
| 2026-05-08 03:39 | 7.48416 | 98.82516 | 21178 ft | 377 kts | 142° |
| 2026-05-08 03:40 | 7.46391 | 98.84179 | 21466 ft | 378 kts | 142° |
| 2026-05-08 03:40 | 7.44349 | 98.85854 | 21747 ft | 379 kts | 142° |
| 2026-05-08 03:40 | 7.42300 | 98.87533 | 22012 ft | 381 kts | 142° |
| 2026-05-08 03:40 | 7.40244 | 98.89215 | 22279 ft | 382 kts | 142° |
| 2026-05-08 03:41 | 7.38176 | 98.90907 | 22543 ft | 382 kts | 143° |
| 2026-05-08 03:41 | 7.36105 | 98.92600 | 22803 ft | 383 kts | 143° |
| 2026-05-08 03:41 | 7.34044 | 98.94285 | 23050 ft | 384 kts | 143° |
| 2026-05-08 03:41 | 7.31972 | 98.95978 | 23294 ft | 385 kts | 143° |
| 2026-05-08 03:42 | 7.29873 | 98.97695 | 23535 ft | 386 kts | 143° |
| 2026-05-08 03:42 | 7.27803 | 98.99387 | 23772 ft | 386 kts | 143° |
| 2026-05-08 03:42 | 7.25734 | 99.01079 | 23898 ft | 382 kts | 143° |
| 2026-05-08 03:42 | 7.23672 | 99.02764 | 23908 ft | 379 kts | 143° |
| 2026-05-08 03:43 | 7.21619 | 99.04443 | 23910 ft | 377 kts | 143° |
| 2026-05-08 03:43 | 7.19715 | 99.05999 | 23910 ft | 376 kts | 143° |
| 2026-05-08 03:43 | 7.17687 | 99.07657 | 23910 ft | 374 kts | 143° |
| 2026-05-08 03:43 | 7.15665 | 99.09310 | 23910 ft | 373 kts | 143° |
| 2026-05-08 03:44 | 7.13637 | 99.10955 | 23908 ft | 372 kts | 139° |
| 2026-05-08 03:44 | 7.11644 | 99.12584 | 23912 ft | 371 kts | 139° |
| 2026-05-08 03:44 | 7.09877 | 99.14031 | 23912 ft | 371 kts | 139° |
| 2026-05-08 03:44 | 7.07888 | 99.15659 | 23912 ft | 371 kts | 139° |
| 2026-05-08 03:45 | 7.05881 | 99.17303 | 23905 ft | 369 kts | 139° |
| 2026-05-08 03:45 | 7.03902 | 99.18923 | 23919 ft | 369 kts | 139° |
| 2026-05-08 03:45 | 7.01926 | 99.20541 | 23915 ft | 370 kts | 144° |
| 2026-05-08 03:45 | 6.99939 | 99.22181 | 23912 ft | 368 kts | 143° |
| 2026-05-08 03:46 | 6.97966 | 99.23791 | 23910 ft | 367 kts | 143° |
| 2026-05-08 03:46 | 6.95988 | 99.25405 | 23909 ft | 367 kts | 143° |
| 2026-05-08 03:46 | 6.94019 | 99.27013 | 23910 ft | 366 kts | 143° |
| 2026-05-08 03:46 | 6.92053 | 99.28620 | 23910 ft | 365 kts | 143° |
| 2026-05-08 03:47 | 6.90081 | 99.30232 | 23909 ft | 365 kts | 144° |
| 2026-05-08 03:47 | 6.88112 | 99.31842 | 23914 ft | 364 kts | 144° |
| 2026-05-08 03:47 | 6.86141 | 99.33453 | 23914 ft | 364 kts | 144° |
| 2026-05-08 03:47 | 6.84190 | 99.35048 | 23914 ft | 364 kts | 144° |
| 2026-05-08 03:48 | 6.82228 | 99.36652 | 23914 ft | 364 kts | 144° |
| 2026-05-08 03:48 | 6.80261 | 99.38261 | 23914 ft | 364 kts | 144° |
| 2026-05-08 03:48 | 6.78296 | 99.39868 | 23914 ft | 364 kts | 144° |
| 2026-05-08 03:48 | 6.76354 | 99.41457 | 23914 ft | 364 kts | 144° |
| 2026-05-08 03:49 | 6.74394 | 99.43059 | 23914 ft | 364 kts | 144° |
| 2026-05-08 03:49 | 6.72422 | 99.44674 | 23914 ft | 364 kts | 144° |
| 2026-05-08 03:49 | 6.70475 | 99.46265 | 23914 ft | 363 kts | 144° |
| 2026-05-08 03:49 | 6.68516 | 99.47869 | 23914 ft | 363 kts | 144° |
| 2026-05-08 03:50 | 6.66560 | 99.49469 | 23914 ft | 363 kts | 144° |
| 2026-05-08 03:50 | 6.64591 | 99.51080 | 23914 ft | 363 kts | 144° |
| 2026-05-08 03:50 | 6.62629 | 99.52685 | 23914 ft | 363 kts | 144° |
| 2026-05-08 03:50 | 6.60662 | 99.54294 | 23914 ft | 363 kts | 144° |
| 2026-05-08 03:51 | 6.58711 | 99.55891 | 23914 ft | 363 kts | 144° |
| 2026-05-08 03:51 | 6.56756 | 99.57490 | 23914 ft | 363 kts | 144° |
| 2026-05-08 03:51 | 6.54813 | 99.59080 | 23914 ft | 363 kts | 144° |
| 2026-05-08 03:51 | 6.52839 | 99.60695 | 23914 ft | 363 kts | 144° |
| 2026-05-08 03:52 | 6.50891 | 99.62289 | 23914 ft | 363 kts | 144° |
| 2026-05-08 03:52 | 6.48932 | 99.63892 | 23913 ft | 363 kts | 144° |
| 2026-05-08 03:52 | 6.46969 | 99.65498 | 23913 ft | 363 kts | 144° |
| 2026-05-08 03:52 | 6.45019 | 99.67061 | 23910 ft | 362 kts | 145° |
| 2026-05-08 03:53 | 6.43011 | 99.68630 | 23910 ft | 362 kts | 145° |
| 2026-05-08 03:53 | 6.41036 | 99.70173 | 23910 ft | 362 kts | 145° |
| 2026-05-08 03:53 | 6.39032 | 99.71741 | 23878 ft | 363 kts | 145° |
| 2026-05-08 03:53 | 6.37054 | 99.73291 | 23431 ft | 357 kts | 145° |
| 2026-05-08 03:54 | 6.35047 | 99.74749 | 22973 ft | 367 kts | 153° |
| 2026-05-08 03:54 | 6.32748 | 99.75944 | 22459 ft | 370 kts | 157° |
| 2026-05-08 03:54 | 6.30483 | 99.77018 | 21893 ft | 355 kts | 159° |
| 2026-05-08 03:54 | 6.28282 | 99.78030 | 21409 ft | 348 kts | 158° |
| 2026-05-08 03:55 | 6.26039 | 99.79079 | 20969 ft | 363 kts | 158° |
| 2026-05-08 03:55 | 6.23773 | 99.80160 | 20429 ft | 358 kts | 158° |
| 2026-05-08 03:55 | 6.21585 | 99.81212 | 19912 ft | 343 kts | 158° |
| 2026-05-08 03:55 | 6.19411 | 99.82254 | 19496 ft | 352 kts | 158° |
| 2026-05-08 03:56 | 6.17173 | 99.83324 | 19023 ft | 359 kts | 158° |
| 2026-05-08 03:56 | 6.14992 | 99.84373 | 18487 ft | 346 kts | 158° |
| 2026-05-08 03:56 | 6.12872 | 99.85393 | 18016 ft | 339 kts | 158° |
| 2026-05-08 03:56 | 6.10674 | 99.86443 | 17614 ft | 353 kts | 158° |
| 2026-05-08 03:57 | 6.08481 | 99.87495 | 17095 ft | 348 kts | 158° |
| 2026-05-08 03:57 | 6.06341 | 99.88524 | 16583 ft | 334 kts | 158° |
| 2026-05-08 03:57 | 6.04226 | 99.89539 | 16191 ft | 345 kts | 158° |
| 2026-05-08 03:57 | 6.02059 | 99.90575 | 15735 ft | 348 kts | 157° |
| 2026-05-08 03:58 | 5.99930 | 99.91598 | 15226 ft | 335 kts | 157° |
| 2026-05-08 03:58 | 5.97858 | 99.92593 | 14798 ft | 334 kts | 157° |
| 2026-05-08 03:58 | 5.95716 | 99.93617 | 14403 ft | 345 kts | 157° |
| 2026-05-08 03:58 | 5.93588 | 99.94638 | 13934 ft | 335 kts | 157° |
| 2026-05-08 03:59 | 5.91512 | 99.95636 | 13469 ft | 325 kts | 157° |
| 2026-05-08 03:59 | 5.89416 | 99.96639 | 13089 ft | 340 kts | 157° |
| 2026-05-08 03:59 | 5.87299 | 99.97653 | 12601 ft | 334 kts | 157° |
| 2026-05-08 03:59 | 5.85261 | 99.98631 | 12156 ft | 320 kts | 156° |
| 2026-05-08 04:00 | 5.83208 | 99.99615 | 11808 ft | 334 kts | 156° |
| 2026-05-08 04:00 | 5.81145 | 100.00604 | 11384 ft | 320 kts | 157° |
| 2026-05-08 04:00 | 5.79209 | 100.01537 | 11019 ft | 298 kts | 157° |
| 2026-05-08 04:00 | 5.77384 | 100.02415 | 10735 ft | 285 kts | 157° |
| 2026-05-08 04:01 | 5.75618 | 100.03262 | 10455 ft | 284 kts | 158° |
| 2026-05-08 04:01 | 5.73785 | 100.04120 | 10197 ft | 292 kts | 161° |
| 2026-05-08 04:01 | 5.71856 | 100.04629 | 9870 ft | 286 kts | 175° |
| 2026-05-08 04:01 | 5.69897 | 100.04859 | 9569 ft | 284 kts | 178° |
| 2026-05-08 04:02 | 5.67939 | 100.05023 | 9274 ft | 281 kts | 179° |
| 2026-05-08 04:02 | 5.66004 | 100.05189 | 8986 ft | 279 kts | 178° |
| 2026-05-08 04:02 | 5.64079 | 100.05380 | 8692 ft | 277 kts | 177° |
| 2026-05-08 04:02 | 5.62172 | 100.05578 | 8407 ft | 276 kts | 177° |
| 2026-05-08 04:03 | 5.60275 | 100.05778 | 8124 ft | 274 kts | 177° |
| 2026-05-08 04:03 | 5.56522 | 100.06174 | 7578 ft | 270 kts | 177° |
| 2026-05-08 04:03 | 5.54663 | 100.06370 | 7317 ft | 269 kts | 177° |
| 2026-05-08 04:04 | 5.52792 | 100.06568 | 7051 ft | 267 kts | 177° |
| 2026-05-08 04:04 | 5.50970 | 100.06761 | 6792 ft | 266 kts | 177° |
| 2026-05-08 04:04 | 5.49125 | 100.06956 | 6531 ft | 264 kts | 177° |
| 2026-05-08 04:04 | 5.47322 | 100.07147 | 6274 ft | 263 kts | 176° |
| 2026-05-08 04:05 | 5.45515 | 100.07339 | 6017 ft | 261 kts | 176° |
| 2026-05-08 04:05 | 5.43717 | 100.07332 | 5753 ft | 257 kts | 190° |
| 2026-05-08 04:05 | 5.41953 | 100.07037 | 5541 ft | 256 kts | 192° |
| 2026-05-08 04:05 | 5.40234 | 100.06700 | 5342 ft | 254 kts | 193° |
| 2026-05-08 04:06 | 5.38494 | 100.06358 | 5151 ft | 254 kts | 192° |
| 2026-05-08 04:06 | 5.36773 | 100.06042 | 4993 ft | 249 kts | 190° |
| 2026-05-08 04:06 | 5.35062 | 100.05741 | 4831 ft | 250 kts | 189° |
| 2026-05-08 04:06 | 5.33361 | 100.05444 | 4649 ft | 249 kts | 189° |
| 2026-05-08 04:07 | 5.31651 | 100.05147 | 4467 ft | 249 kts | 189° |
| 2026-05-08 04:07 | 5.29966 | 100.04855 | 4287 ft | 248 kts | 189° |
| 2026-05-08 04:07 | 5.28283 | 100.04562 | 4090 ft | 240 kts | 189° |
| 2026-05-08 04:07 | 5.26683 | 100.04284 | 3900 ft | 227 kts | 189° |
| 2026-05-08 04:08 | 5.25170 | 100.04022 | 3739 ft | 216 kts | 189° |
| 2026-05-08 04:08 | 5.23723 | 100.03770 | 3594 ft | 206 kts | 188° |
| 2026-05-08 04:08 | 5.22332 | 100.03528 | 3452 ft | 198 kts | 188° |
| 2026-05-08 04:08 | 5.20929 | 100.03333 | 3352 ft | 210 kts | 179° |
| 2026-05-08 04:09 | 5.19492 | 100.03567 | 3148 ft | 212 kts | 160° |
| 2026-05-08 04:09 | 5.18215 | 100.04288 | 2958 ft | 206 kts | 140° |
| 2026-05-08 04:09 | 5.17334 | 100.05351 | 2818 ft | 197 kts | 120° |
| 2026-05-08 04:09 | 5.16828 | 100.06611 | 2721 ft | 193 kts | 109° |
| 2026-05-08 04:10 | 5.16519 | 100.07916 | 2605 ft | 190 kts | 106° |
| 2026-05-08 04:10 | 5.16125 | 100.09177 | 2495 ft | 188 kts | 113° |
| 2026-05-08 04:10 | 5.15647 | 100.10390 | 2386 ft | 188 kts | 114° |
| 2026-05-08 04:10 | 5.15153 | 100.11600 | 2219 ft | 189 kts | 114° |
| 2026-05-08 04:11 | 5.14911 | 100.12888 | 1982 ft | 189 kts | 86° |
| 2026-05-08 04:11 | 5.15248 | 100.14126 | 1974 ft | 185 kts | 69° |
| 2026-05-08 04:11 | 5.15954 | 100.15211 | 1963 ft | 186 kts | 49° |
| 2026-05-08 04:11 | 5.16879 | 100.16080 | 1976 ft | 181 kts | 45° |
| 2026-05-08 04:12 | 5.17814 | 100.16914 | 1989 ft | 178 kts | 45° |
| 2026-05-08 04:12 | 5.18729 | 100.17732 | 1961 ft | 176 kts | 45° |
| 2026-05-08 04:12 | 5.19636 | 100.18550 | 1965 ft | 176 kts | 45° |
| 2026-05-08 04:12 | 5.20551 | 100.19377 | 1975 ft | 176 kts | 45° |
| 2026-05-08 04:13 | 5.21452 | 100.20192 | 1947 ft | 171 kts | 45° |
| 2026-05-08 04:13 | 5.22325 | 100.20982 | 1704 ft | 165 kts | 45° |
| 2026-05-08 04:13 | 5.23168 | 100.21747 | 1496 ft | 163 kts | 46° |
| 2026-05-08 04:13 | 5.24007 | 100.22508 | 1280 ft | 162 kts | 45° |
| 2026-05-08 04:14 | 5.24836 | 100.23261 | 1066 ft | 161 kts | 45° |
| 2026-05-08 04:14 | 5.25658 | 100.24004 | 847 ft | 156 kts | 45° |
| 2026-05-08 04:14 | 5.26457 | 100.24725 | 651 ft | 154 kts | 45° |
| 2026-05-08 04:14 | 5.27267 | 100.25420 | 458 ft | 155 kts | 43° |
| 2026-05-08 04:15 | 5.28057 | 100.26112 | 281 ft | 145 kts | 45° |
| 2026-05-08 04:15 | 5.28775 | 100.26794 | 51 ft | 137 kts | 47° |
| 2026-05-08 04:15 | 5.29341 | 100.27326 | 21 ft | 78 kts | 51° |
| 2026-05-08 04:15 | 5.29588 | 100.27570 | 21 ft | 28 kts | 40° |
| 2026-05-08 04:16 | 5.29685 | 100.27657 | 21 ft | 18 kts | 42° |
| 2026-05-08 04:16 | 5.29793 | 100.27754 | 21 ft | 22 kts | 34° |
| 2026-05-08 04:16 | 5.29941 | 100.27818 | 21 ft | 23 kts | 14° |
| 2026-05-08 04:16 | 5.30001 | 100.27834 | 21 ft | 0 kts | 13° |
| 2026-05-08 04:17 | 5.30018 | 100.27838 | 21 ft | 5 kts | 13° |
| 2026-05-08 04:17 | 5.30072 | 100.27848 | 21 ft | 9 kts | 9° |
| 2026-05-08 04:18 | 5.30122 | 100.27826 | 22 ft | 7 kts | 289° |
| 2026-05-08 04:18 | 5.30104 | 100.27782 | 22 ft | 8 kts | 231° |
| 2026-05-08 04:18 | 5.30049 | 100.27727 | 23 ft | 14 kts | 222° |
| 2026-05-08 04:18 | 5.29973 | 100.27658 | 23 ft | 15 kts | 222° |
| 2026-05-08 04:19 | 5.29888 | 100.27583 | 23 ft | 17 kts | 220° |
| 2026-05-08 04:19 | 5.29792 | 100.27501 | 22 ft | 18 kts | 223° |
| 2026-05-08 04:19 | 5.29693 | 100.27406 | 21 ft | 20 kts | 226° |
| 2026-05-08 04:19 | 5.29585 | 100.27306 | 21 ft | 21 kts | 221° |
| 2026-05-08 04:20 | 5.29468 | 100.27202 | 21 ft | 23 kts | 220° |
| 2026-05-08 04:20 | 5.29349 | 100.27088 | 21 ft | 23 kts | 237° |
| 2026-05-08 04:20 | 5.29396 | 100.26975 | 24 ft | 17 kts | 284° |
| 2026-05-08 04:20 | 5.29353 | 100.26881 | 24 ft | 14 kts | 225° |
| 2026-05-08 04:21 | 5.29363 | 100.26823 | 25 ft | 5 kts | 311° |
| 2026-05-08 04:21 | 5.29380 | 100.26801 | 25 ft | 0 kts | 311° |
| 2026-05-08 04:21 | 5.29383 | 100.26798 | 25 ft | 0 kts | 311° |
| 2026-05-08 04:21 | 5.29384 | 100.26798 | 25 ft | 0 kts | 311° |